North Charleston, South Carolina
Current Conditions -  °F | °C
As of 2:56 PM on Saturday 25 Oct 2014 (Local Time) from KCHS Reporting Station
Clear Clear  
Wind Chill: 76°   Ceiling: Unl
Heat Index: 76°   Visibility: 10mi
Dew Point: 44°   Wind: 6mph
Humidity: 32%   Direction: 310°NW
Pressure: 29.96"   Gusts: NA
Location:  32.88°N, 80.01°W
Report Text: KCHS 251856Z 31005KT 10SM CLR 24/07 A2996 RMK AO2 SLP146 T02440067
Loading
Personal Weather Stations






























Interactive Weather Map
Tropical Storm Tracking
New forecast layout! Learn more

10-Day Weather Forecast

Advertisements
Track Severe Weather on mobile